sensor_id;sensor_type;location;lat;lon;timestamp;P1;durP1;ratioP1;P2;durP2;ratioP2
23519;SDS011;11936;50.820;4.336;2023-02-04T00:01:42;16.77;;;9.88;;
23519;SDS011;11936;50.820;4.336;2023-02-04T00:04:08;16.77;;;10.38;;
23519;SDS011;11936;50.820;4.336;2023-02-04T00:06:33;18.27;;;11.07;;
23519;SDS011;11936;50.820;4.336;2023-02-04T00:08:59;16.27;;;10.02;;
23519;SDS011;11936;50.820;4.336;2023-02-04T00:11:24;19.50;;;10.48;;
23519;SDS011;11936;50.820;4.336;2023-02-04T00:13:50;18.50;;;10.45;;
23519;SDS011;11936;50.820;4.336;2023-02-04T00:16:15;23.45;;;10.65;;
23519;SDS011;11936;50.820;4.336;2023-02-04T00:18:41;21.25;;;10.55;;
23519;SDS011;11936;50.820;4.336;2023-02-04T00:21:06;16.98;;;9.82;;
23519;SDS011;11936;50.820;4.336;2023-02-04T00:23:32;17.02;;;10.05;;
23519;SDS011;11936;50.820;4.336;2023-02-04T00:25:57;17.20;;;10.48;;
23519;SDS011;11936;50.820;4.336;2023-02-04T00:28:23;15.88;;;10.43;;
23519;SDS011;11936;50.820;4.336;2023-02-04T00:30:48;19.55;;;9.48;;
23519;SDS011;11936;50.820;4.336;2023-02-04T00:33:14;18.00;;;9.38;;
23519;SDS011;11936;50.820;4.336;2023-02-04T00:35:39;20.27;;;10.27;;
23519;SDS011;11936;50.820;4.336;2023-02-04T00:38:05;18.63;;;10.88;;
23519;SDS011;11936;50.820;4.336;2023-02-04T00:40:31;12.45;;;9.65;;
23519;SDS011;11936;50.820;4.336;2023-02-04T00:42:57;22.05;;;10.93;;
23519;SDS011;11936;50.820;4.336;2023-02-04T00:45:23;19.55;;;10.45;;
23519;SDS011;11936;50.820;4.336;2023-02-04T00:47:49;17.25;;;10.05;;
23519;SDS011;11936;50.820;4.336;2023-02-04T00:50:14;16.90;;;9.57;;
23519;SDS011;11936;50.820;4.336;2023-02-04T00:52:40;21.92;;;9.93;;
23519;SDS011;11936;50.820;4.336;2023-02-04T00:55:06;15.30;;;9.35;;
23519;SDS011;11936;50.820;4.336;2023-02-04T00:57:32;16.15;;;9.40;;
23519;SDS011;11936;50.820;4.336;2023-02-04T00:59:58;20.40;;;9.50;;
23519;SDS011;11936;50.820;4.336;2023-02-04T01:02:23;21.00;;;10.30;;
23519;SDS011;11936;50.820;4.336;2023-02-04T01:04:49;15.82;;;9.50;;
23519;SDS011;11936;50.820;4.336;2023-02-04T01:07:14;14.75;;;9.00;;
23519;SDS011;11936;50.820;4.336;2023-02-04T01:09:40;18.25;;;10.25;;
23519;SDS011;11936;50.820;4.336;2023-02-04T01:12:06;13.93;;;8.77;;
23519;SDS011;11936;50.820;4.336;2023-02-04T01:14:31;17.55;;;9.75;;
23519;SDS011;11936;50.820;4.336;2023-02-04T01:16:57;16.92;;;9.40;;
23519;SDS011;11936;50.820;4.336;2023-02-04T01:19:23;22.20;;;10.30;;
23519;SDS011;11936;50.820;4.336;2023-02-04T01:21:48;14.85;;;9.77;;
23519;SDS011;11936;50.820;4.336;2023-02-04T01:24:14;17.27;;;10.27;;
23519;SDS011;11936;50.820;4.336;2023-02-04T01:26:39;20.48;;;11.60;;
23519;SDS011;11936;50.820;4.336;2023-02-04T01:29:05;21.17;;;11.55;;
23519;SDS011;11936;50.820;4.336;2023-02-04T01:31:31;19.25;;;11.18;;
23519;SDS011;11936;50.820;4.336;2023-02-04T01:33:58;20.15;;;11.50;;
23519;SDS011;11936;50.820;4.336;2023-02-04T01:36:24;18.90;;;12.13;;
23519;SDS011;11936;50.820;4.336;2023-02-04T01:38:50;18.10;;;11.25;;
23519;SDS011;11936;50.820;4.336;2023-02-04T01:41:16;21.33;;;11.93;;
23519;SDS011;11936;50.820;4.336;2023-02-04T01:43:42;21.20;;;12.65;;
23519;SDS011;11936;50.820;4.336;2023-02-04T01:46:09;20.77;;;13.02;;
23519;SDS011;11936;50.820;4.336;2023-02-04T01:48:34;21.13;;;13.05;;
23519;SDS011;11936;50.820;4.336;2023-02-04T01:51:04;20.83;;;13.95;;
23519;SDS011;11936;50.820;4.336;2023-02-04T01:53:32;21.42;;;13.55;;
23519;SDS011;11936;50.820;4.336;2023-02-04T01:55:59;21.95;;;13.75;;
23519;SDS011;11936;50.820;4.336;2023-02-04T01:58:25;23.70;;;13.93;;
23519;SDS011;11936;50.820;4.336;2023-02-04T02:00:51;24.45;;;14.00;;
23519;SDS011;11936;50.820;4.336;2023-02-04T02:03:16;25.92;;;14.23;;
23519;SDS011;11936;50.820;4.336;2023-02-04T02:05:44;24.15;;;14.75;;
23519;SDS011;11936;50.820;4.336;2023-02-04T02:08:12;20.42;;;13.55;;
23519;SDS011;11936;50.820;4.336;2023-02-04T02:10:39;24.85;;;14.93;;
23519;SDS011;11936;50.820;4.336;2023-02-04T02:13:07;28.85;;;15.82;;
23519;SDS011;11936;50.820;4.336;2023-02-04T02:15:35;24.92;;;15.40;;
23519;SDS011;11936;50.820;4.336;2023-02-04T02:18:01;23.42;;;15.57;;
23519;SDS011;11936;50.820;4.336;2023-02-04T02:20:28;24.83;;;15.63;;
23519;SDS011;11936;50.820;4.336;2023-02-04T02:23:13;23.73;;;16.55;;
23519;SDS011;11936;50.820;4.336;2023-02-04T02:25:48;21.67;;;16.05;;
23519;SDS011;11936;50.820;4.336;2023-02-04T02:28:17;24.38;;;15.95;;
23519;SDS011;11936;50.820;4.336;2023-02-04T02:30:44;25.55;;;17.67;;
23519;SDS011;11936;50.820;4.336;2023-02-04T02:33:13;20.60;;;15.35;;
23519;SDS011;11936;50.820;4.336;2023-02-04T02:35:41;22.42;;;16.52;;
23519;SDS011;11936;50.820;4.336;2023-02-04T02:38:08;20.63;;;15.55;;
23519;SDS011;11936;50.820;4.336;2023-02-04T02:40:35;24.70;;;16.25;;
23519;SDS011;11936;50.820;4.336;2023-02-04T02:43:01;23.60;;;15.70;;
23519;SDS011;11936;50.820;4.336;2023-02-04T02:45:27;30.08;;;17.60;;
23519;SDS011;11936;50.820;4.336;2023-02-04T02:47:56;28.38;;;16.75;;
23519;SDS011;11936;50.820;4.336;2023-02-04T02:50:24;21.38;;;15.98;;
23519;SDS011;11936;50.820;4.336;2023-02-04T02:52:52;23.02;;;15.70;;
23519;SDS011;11936;50.820;4.336;2023-02-04T02:55:20;21.63;;;16.27;;
23519;SDS011;11936;50.820;4.336;2023-02-04T02:57:48;21.45;;;15.95;;
23519;SDS011;11936;50.820;4.336;2023-02-04T03:00:16;25.85;;;16.88;;
23519;SDS011;11936;50.820;4.336;2023-02-04T03:02:44;21.83;;;16.40;;
23519;SDS011;11936;50.820;4.336;2023-02-04T03:05:17;20.65;;;14.43;;
23519;SDS011;11936;50.820;4.336;2023-02-04T03:07:43;20.52;;;15.57;;
23519;SDS011;11936;50.820;4.336;2023-02-04T03:10:09;17.58;;;14.35;;
23519;SDS011;11936;50.820;4.336;2023-02-04T03:12:34;22.40;;;14.80;;
23519;SDS011;11936;50.820;4.336;2023-02-04T03:15:00;18.58;;;15.18;;
23519;SDS011;11936;50.820;4.336;2023-02-04T03:17:28;19.55;;;14.25;;
23519;SDS011;11936;50.820;4.336;2023-02-04T03:19:53;19.38;;;13.88;;
23519;SDS011;11936;50.820;4.336;2023-02-04T03:22:19;17.25;;;14.77;;
23519;SDS011;11936;50.820;4.336;2023-02-04T03:24:45;17.80;;;14.15;;
23519;SDS011;11936;50.820;4.336;2023-02-04T03:27:10;22.27;;;15.07;;
23519;SDS011;11936;50.820;4.336;2023-02-04T03:29:41;16.80;;;15.00;;
23519;SDS011;11936;50.820;4.336;2023-02-04T03:32:07;18.33;;;14.40;;
23519;SDS011;11936;50.820;4.336;2023-02-04T03:34:33;21.33;;;14.88;;
23519;SDS011;11936;50.820;4.336;2023-02-04T03:36:58;20.48;;;14.65;;
23519;SDS011;11936;50.820;4.336;2023-02-04T03:39:24;19.00;;;13.45;;
23519;SDS011;11936;50.820;4.336;2023-02-04T03:41:49;18.75;;;14.52;;
23519;SDS011;11936;50.820;4.336;2023-02-04T03:44:15;18.25;;;13.25;;
23519;SDS011;11936;50.820;4.336;2023-02-04T03:46:40;14.25;;;11.82;;
23519;SDS011;11936;50.820;4.336;2023-02-04T03:49:06;15.48;;;11.32;;
23519;SDS011;11936;50.820;4.336;2023-02-04T03:51:31;17.52;;;12.20;;
23519;SDS011;11936;50.820;4.336;2023-02-04T03:53:57;16.02;;;12.32;;
23519;SDS011;11936;50.820;4.336;2023-02-04T03:56:23;16.58;;;11.95;;
23519;SDS011;11936;50.820;4.336;2023-02-04T03:58:48;12.95;;;10.80;;
23519;SDS011;11936;50.820;4.336;2023-02-04T04:01:14;15.13;;;10.68;;
23519;SDS011;11936;50.820;4.336;2023-02-04T04:03:39;16.08;;;10.88;;
23519;SDS011;11936;50.820;4.336;2023-02-04T04:06:05;14.02;;;10.10;;
23519;SDS011;11936;50.820;4.336;2023-02-04T04:08:33;14.15;;;10.70;;
23519;SDS011;11936;50.820;4.336;2023-02-04T04:10:59;12.80;;;10.20;;
23519;SDS011;11936;50.820;4.336;2023-02-04T04:13:25;12.05;;;10.25;;
23519;SDS011;11936;50.820;4.336;2023-02-04T04:15:50;13.38;;;9.55;;
23519;SDS011;11936;50.820;4.336;2023-02-04T04:18:16;13.10;;;10.35;;
23519;SDS011;11936;50.820;4.336;2023-02-04T04:20:41;13.20;;;9.95;;
23519;SDS011;11936;50.820;4.336;2023-02-04T04:23:07;12.80;;;10.45;;
23519;SDS011;11936;50.820;4.336;2023-02-04T04:25:33;12.10;;;9.60;;
23519;SDS011;11936;50.820;4.336;2023-02-04T04:27:58;12.43;;;9.38;;
23519;SDS011;11936;50.820;4.336;2023-02-04T04:30:24;12.45;;;9.68;;
23519;SDS011;11936;50.820;4.336;2023-02-04T04:32:49;11.25;;;8.80;;
23519;SDS011;11936;50.820;4.336;2023-02-04T04:35:15;11.02;;;9.38;;
23519;SDS011;11936;50.820;4.336;2023-02-04T04:37:40;11.10;;;9.15;;
23519;SDS011;11936;50.820;4.336;2023-02-04T04:40:06;10.60;;;9.43;;
23519;SDS011;11936;50.820;4.336;2023-02-04T04:42:33;10.48;;;8.95;;
23519;SDS011;11936;50.820;4.336;2023-02-04T04:44:58;11.82;;;10.35;;
23519;SDS011;11936;50.820;4.336;2023-02-04T04:47:24;10.70;;;9.60;;
23519;SDS011;11936;50.820;4.336;2023-02-04T04:49:49;11.63;;;9.43;;
23519;SDS011;11936;50.820;4.336;2023-02-04T04:52:15;10.15;;;8.85;;
23519;SDS011;11936;50.820;4.336;2023-02-04T04:54:40;12.27;;;9.23;;
23519;SDS011;11936;50.820;4.336;2023-02-04T04:57:06;10.82;;;8.50;;
23519;SDS011;11936;50.820;4.336;2023-02-04T04:59:31;11.07;;;8.98;;
23519;SDS011;11936;50.820;4.336;2023-02-04T05:01:57;11.40;;;9.38;;
23519;SDS011;11936;50.820;4.336;2023-02-04T05:04:23;10.35;;;9.20;;
23519;SDS011;11936;50.820;4.336;2023-02-04T05:06:48;11.77;;;9.82;;
23519;SDS011;11936;50.820;4.336;2023-02-04T05:09:14;12.10;;;10.07;;
23519;SDS011;11936;50.820;4.336;2023-02-04T05:11:41;13.35;;;10.38;;
23519;SDS011;11936;50.820;4.336;2023-02-04T05:14:06;12.18;;;9.98;;
23519;SDS011;11936;50.820;4.336;2023-02-04T05:16:32;13.52;;;9.88;;
23519;SDS011;11936;50.820;4.336;2023-02-04T05:18:57;12.85;;;10.60;;
23519;SDS011;11936;50.820;4.336;2023-02-04T05:21:23;14.00;;;11.57;;
23519;SDS011;11936;50.820;4.336;2023-02-04T05:23:49;13.27;;;11.05;;
23519;SDS011;11936;50.820;4.336;2023-02-04T05:26:14;13.88;;;10.40;;
23519;SDS011;11936;50.820;4.336;2023-02-04T05:28:40;12.82;;;10.40;;
23519;SDS011;11936;50.820;4.336;2023-02-04T05:31:05;12.55;;;10.48;;
23519;SDS011;11936;50.820;4.336;2023-02-04T05:33:31;14.00;;;11.43;;
23519;SDS011;11936;50.820;4.336;2023-02-04T05:35:56;11.80;;;10.57;;
23519;SDS011;11936;50.820;4.336;2023-02-04T05:38:22;13.48;;;9.73;;
23519;SDS011;11936;50.820;4.336;2023-02-04T05:40:47;13.23;;;10.73;;
23519;SDS011;11936;50.820;4.336;2023-02-04T05:43:13;14.90;;;10.93;;
23519;SDS011;11936;50.820;4.336;2023-02-04T05:45:39;12.45;;;10.80;;
23519;SDS011;11936;50.820;4.336;2023-02-04T05:48:04;13.13;;;11.13;;
23519;SDS011;11936;50.820;4.336;2023-02-04T05:50:30;11.82;;;9.90;;
23519;SDS011;11936;50.820;4.336;2023-02-04T05:52:55;12.80;;;10.90;;
23519;SDS011;11936;50.820;4.336;2023-02-04T05:55:21;13.15;;;10.93;;
23519;SDS011;11936;50.820;4.336;2023-02-04T05:57:46;17.00;;;13.35;;
23519;SDS011;11936;50.820;4.336;2023-02-04T06:00:12;18.30;;;13.23;;
23519;SDS011;11936;50.820;4.336;2023-02-04T06:02:38;17.80;;;13.27;;
23519;SDS011;11936;50.820;4.336;2023-02-04T06:05:03;14.40;;;12.75;;
23519;SDS011;11936;50.820;4.336;2023-02-04T06:07:29;17.98;;;13.68;;
23519;SDS011;11936;50.820;4.336;2023-02-04T06:09:55;17.38;;;12.88;;
23519;SDS011;11936;50.820;4.336;2023-02-04T06:12:20;15.77;;;12.73;;
23519;SDS011;11936;50.820;4.336;2023-02-04T06:14:46;15.23;;;12.52;;
23519;SDS011;11936;50.820;4.336;2023-02-04T06:17:11;15.88;;;12.77;;
23519;SDS011;11936;50.820;4.336;2023-02-04T06:19:37;16.98;;;13.73;;
23519;SDS011;11936;50.820;4.336;2023-02-04T06:22:03;16.75;;;13.35;;
23519;SDS011;11936;50.820;4.336;2023-02-04T06:24:28;18.13;;;13.48;;
23519;SDS011;11936;50.820;4.336;2023-02-04T06:26:54;17.13;;;13.60;;
23519;SDS011;11936;50.820;4.336;2023-02-04T06:29:20;21.25;;;14.00;;
23519;SDS011;11936;50.820;4.336;2023-02-04T06:31:45;19.13;;;15.05;;
23519;SDS011;11936;50.820;4.336;2023-02-04T06:34:13;19.17;;;14.73;;
23519;SDS011;11936;50.820;4.336;2023-02-04T06:36:38;19.10;;;14.27;;
23519;SDS011;11936;50.820;4.336;2023-02-04T06:39:04;18.75;;;14.48;;
23519;SDS011;11936;50.820;4.336;2023-02-04T06:41:29;21.67;;;16.23;;
23519;SDS011;11936;50.820;4.336;2023-02-04T06:43:55;21.63;;;15.35;;
23519;SDS011;11936;50.820;4.336;2023-02-04T06:46:21;23.35;;;16.25;;
23519;SDS011;11936;50.820;4.336;2023-02-04T06:48:46;21.77;;;15.23;;
23519;SDS011;11936;50.820;4.336;2023-02-04T06:51:12;19.83;;;15.52;;
23519;SDS011;11936;50.820;4.336;2023-02-04T06:53:37;20.40;;;16.13;;
23519;SDS011;11936;50.820;4.336;2023-02-04T06:56:04;23.70;;;17.45;;
23519;SDS011;11936;50.820;4.336;2023-02-04T06:58:30;26.08;;;17.48;;
23519;SDS011;11936;50.820;4.336;2023-02-04T07:00:55;28.92;;;17.50;;
23519;SDS011;11936;50.820;4.336;2023-02-04T07:03:21;23.75;;;17.48;;
23519;SDS011;11936;50.820;4.336;2023-02-04T07:05:46;27.02;;;17.63;;
23519;SDS011;11936;50.820;4.336;2023-02-04T07:08:12;28.70;;;18.50;;
23519;SDS011;11936;50.820;4.336;2023-02-04T07:10:37;23.95;;;17.70;;
23519;SDS011;11936;50.820;4.336;2023-02-04T07:13:03;25.48;;;17.83;;
23519;SDS011;11936;50.820;4.336;2023-02-04T07:15:29;21.35;;;15.43;;
23519;SDS011;11936;50.820;4.336;2023-02-04T07:17:55;19.77;;;14.75;;
23519;SDS011;11936;50.820;4.336;2023-02-04T07:20:21;25.05;;;15.05;;
23519;SDS011;11936;50.820;4.336;2023-02-04T07:22:47;13.73;;;12.15;;
23519;SDS011;11936;50.820;4.336;2023-02-04T07:25:12;20.75;;;15.75;;
23519;SDS011;11936;50.820;4.336;2023-02-04T07:27:41;17.63;;;12.52;;
23519;SDS011;11936;50.820;4.336;2023-02-04T07:30:08;19.10;;;14.20;;
23519;SDS011;11936;50.820;4.336;2023-02-04T07:32:34;21.23;;;14.90;;
23519;SDS011;11936;50.820;4.336;2023-02-04T07:35:00;24.23;;;14.75;;
23519;SDS011;11936;50.820;4.336;2023-02-04T07:37:25;20.60;;;15.25;;
23519;SDS011;11936;50.820;4.336;2023-02-04T07:39:51;20.27;;;14.98;;
23519;SDS011;11936;50.820;4.336;2023-02-04T07:42:17;19.17;;;13.80;;
23519;SDS011;11936;50.820;4.336;2023-02-04T07:44:42;20.40;;;14.85;;
23519;SDS011;11936;50.820;4.336;2023-02-04T07:47:08;18.17;;;12.90;;
23519;SDS011;11936;50.820;4.336;2023-02-04T07:49:33;20.40;;;15.18;;
23519;SDS011;11936;50.820;4.336;2023-02-04T07:51:59;22.42;;;15.48;;
23519;SDS011;11936;50.820;4.336;2023-02-04T07:54:25;18.38;;;15.00;;
23519;SDS011;11936;50.820;4.336;2023-02-04T07:56:53;20.70;;;15.50;;
23519;SDS011;11936;50.820;4.336;2023-02-04T07:59:18;20.42;;;14.35;;
23519;SDS011;11936;50.820;4.336;2023-02-04T08:01:47;18.85;;;13.85;;
23519;SDS011;11936;50.820;4.336;2023-02-04T08:04:13;20.75;;;13.95;;
23519;SDS011;11936;50.820;4.336;2023-02-04T08:06:39;22.98;;;14.73;;
23519;SDS011;11936;50.820;4.336;2023-02-04T08:09:04;20.77;;;14.35;;
23519;SDS011;11936;50.820;4.336;2023-02-04T08:11:30;22.27;;;15.55;;
23519;SDS011;11936;50.820;4.336;2023-02-04T08:13:56;19.15;;;14.05;;
23519;SDS011;11936;50.820;4.336;2023-02-04T08:16:21;18.67;;;12.93;;
23519;SDS011;11936;50.820;4.336;2023-02-04T08:18:47;18.90;;;10.95;;
23519;SDS011;11936;50.820;4.336;2023-02-04T08:21:13;14.73;;;11.80;;
23519;SDS011;11936;50.820;4.336;2023-02-04T08:23:38;10.93;;;8.60;;
23519;SDS011;11936;50.820;4.336;2023-02-04T08:28:34;12.82;;;8.80;;
23519;SDS011;11936;50.820;4.336;2023-02-04T08:30:59;12.73;;;9.55;;
23519;SDS011;11936;50.820;4.336;2023-02-04T08:33:25;10.73;;;8.77;;
23519;SDS011;11936;50.820;4.336;2023-02-04T08:35:51;13.90;;;9.55;;
23519;SDS011;11936;50.820;4.336;2023-02-04T08:38:16;12.98;;;9.77;;
23519;SDS011;11936;50.820;4.336;2023-02-04T08:40:42;11.80;;;9.40;;
23519;SDS011;11936;50.820;4.336;2023-02-04T08:43:08;12.35;;;8.35;;
23519;SDS011;11936;50.820;4.336;2023-02-04T08:45:34;9.05;;;7.53;;
23519;SDS011;11936;50.820;4.336;2023-02-04T08:47:59;12.15;;;7.97;;
23519;SDS011;11936;50.820;4.336;2023-02-04T08:50:25;11.05;;;8.05;;
23519;SDS011;11936;50.820;4.336;2023-02-04T08:52:52;11.73;;;8.88;;
23519;SDS011;11936;50.820;4.336;2023-02-04T08:55:18;10.98;;;8.00;;
23519;SDS011;11936;50.820;4.336;2023-02-04T08:57:43;9.95;;;8.40;;
23519;SDS011;11936;50.820;4.336;2023-02-04T09:00:09;12.27;;;8.10;;
23519;SDS011;11936;50.820;4.336;2023-02-04T09:02:36;15.45;;;8.57;;
23519;SDS011;11936;50.820;4.336;2023-02-04T09:05:01;12.65;;;8.77;;
23519;SDS011;11936;50.820;4.336;2023-02-04T09:07:27;10.82;;;8.82;;
23519;SDS011;11936;50.820;4.336;2023-02-04T09:09:52;10.45;;;8.68;;
23519;SDS011;11936;50.820;4.336;2023-02-04T09:12:18;13.85;;;8.20;;
23519;SDS011;11936;50.820;4.336;2023-02-04T09:14:43;11.30;;;8.48;;
23519;SDS011;11936;50.820;4.336;2023-02-04T09:17:09;13.55;;;8.55;;
23519;SDS011;11936;50.820;4.336;2023-02-04T09:19:34;13.30;;;8.48;;
23519;SDS011;11936;50.820;4.336;2023-02-04T09:22:00;9.90;;;8.07;;
23519;SDS011;11936;50.820;4.336;2023-02-04T09:24:26;12.50;;;8.00;;
23519;SDS011;11936;50.820;4.336;2023-02-04T09:26:51;14.00;;;8.85;;
23519;SDS011;11936;50.820;4.336;2023-02-04T09:29:17;10.13;;;8.32;;
23519;SDS011;11936;50.820;4.336;2023-02-04T09:31:42;11.05;;;8.27;;
23519;SDS011;11936;50.820;4.336;2023-02-04T09:34:08;8.63;;;7.72;;
23519;SDS011;11936;50.820;4.336;2023-02-04T09:36:33;9.60;;;8.00;;
23519;SDS011;11936;50.820;4.336;2023-02-04T09:39:02;10.77;;;7.75;;
23519;SDS011;11936;50.820;4.336;2023-02-04T09:41:33;8.75;;;6.90;;
23519;SDS011;11936;50.820;4.336;2023-02-04T09:43:59;7.00;;;5.95;;
23519;SDS011;11936;50.820;4.336;2023-02-04T09:46:25;6.57;;;5.65;;
23519;SDS011;11936;50.820;4.336;2023-02-04T09:48:53;7.03;;;6.33;;
23519;SDS011;11936;50.820;4.336;2023-02-04T09:51:26;7.18;;;6.25;;
23519;SDS011;11936;50.820;4.336;2023-02-04T09:53:53;7.78;;;6.35;;
23519;SDS011;11936;50.820;4.336;2023-02-04T09:56:26;7.10;;;5.85;;
23519;SDS011;11936;50.820;4.336;2023-02-04T09:58:52;7.97;;;6.80;;
23519;SDS011;11936;50.820;4.336;2023-02-04T10:01:19;9.18;;;6.57;;
23519;SDS011;11936;50.820;4.336;2023-02-04T10:03:46;8.55;;;7.22;;
23519;SDS011;11936;50.820;4.336;2023-02-04T10:06:16;7.07;;;5.80;;
23519;SDS011;11936;50.820;4.336;2023-02-04T10:08:43;7.68;;;6.43;;
23519;SDS011;11936;50.820;4.336;2023-02-04T10:11:10;9.02;;;7.65;;
23519;SDS011;11936;50.820;4.336;2023-02-04T10:13:37;9.55;;;7.35;;
23519;SDS011;11936;50.820;4.336;2023-02-04T10:16:13;7.47;;;6.70;;
23519;SDS011;11936;50.820;4.336;2023-02-04T10:18:48;6.88;;;5.57;;
23519;SDS011;11936;50.820;4.336;2023-02-04T10:21:17;6.30;;;5.30;;
23519;SDS011;11936;50.820;4.336;2023-02-04T10:23:58;5.57;;;4.90;;
23519;SDS011;11936;50.820;4.336;2023-02-04T10:26:27;5.78;;;5.20;;
23519;SDS011;11936;50.820;4.336;2023-02-04T10:28:59;6.75;;;5.10;;
23519;SDS011;11936;50.820;4.336;2023-02-04T10:31:31;5.68;;;4.65;;
23519;SDS011;11936;50.820;4.336;2023-02-04T10:34:03;5.38;;;4.32;;
23519;SDS011;11936;50.820;4.336;2023-02-04T10:36:40;6.95;;;3.92;;
23519;SDS011;11936;50.820;4.336;2023-02-04T10:39:12;4.03;;;3.17;;
23519;SDS011;11936;50.820;4.336;2023-02-04T10:41:40;3.30;;;3.00;;
23519;SDS011;11936;50.820;4.336;2023-02-04T10:44:19;2.88;;;2.65;;
23519;SDS011;11936;50.820;4.336;2023-02-04T10:47:04;4.18;;;3.78;;
23519;SDS011;11936;50.820;4.336;2023-02-04T10:49:32;4.00;;;3.60;;
23519;SDS011;11936;50.820;4.336;2023-02-04T10:51:59;4.28;;;3.90;;
23519;SDS011;11936;50.820;4.336;2023-02-04T10:54:27;5.45;;;3.70;;
23519;SDS011;11936;50.820;4.336;2023-02-04T10:57:19;4.40;;;4.00;;
23519;SDS011;11936;50.820;4.336;2023-02-04T10:59:52;5.10;;;4.57;;
23519;SDS011;11936;50.820;4.336;2023-02-04T11:05:14;5.32;;;4.72;;
23519;SDS011;11936;50.820;4.336;2023-02-04T11:07:43;5.70;;;4.85;;
23519;SDS011;11936;50.820;4.336;2023-02-04T11:10:11;4.25;;;3.85;;
23519;SDS011;11936;50.820;4.336;2023-02-04T11:15:04;7.50;;;4.72;;
23519;SDS011;11936;50.820;4.336;2023-02-04T11:17:31;7.53;;;4.80;;
23519;SDS011;11936;50.820;4.336;2023-02-04T11:19:58;9.80;;;5.95;;
23519;SDS011;11936;50.820;4.336;2023-02-04T11:22:41;8.73;;;6.28;;
23519;SDS011;11936;50.820;4.336;2023-02-04T11:28:00;11.40;;;8.32;;
23519;SDS011;11936;50.820;4.336;2023-02-04T11:30:38;14.70;;;9.68;;
23519;SDS011;11936;50.820;4.336;2023-02-04T11:33:04;15.80;;;11.25;;
23519;SDS011;11936;50.820;4.336;2023-02-04T11:35:55;17.40;;;10.90;;
23519;SDS011;11936;50.820;4.336;2023-02-04T11:38:29;16.67;;;10.82;;
23519;SDS011;11936;50.820;4.336;2023-02-04T11:40:56;20.63;;;12.82;;
23519;SDS011;11936;50.820;4.336;2023-02-04T11:43:23;22.80;;;14.95;;
23519;SDS011;11936;50.820;4.336;2023-02-04T11:45:59;21.55;;;14.20;;
23519;SDS011;11936;50.820;4.336;2023-02-04T11:48:29;21.48;;;15.15;;
23519;SDS011;11936;50.820;4.336;2023-02-04T11:50:57;21.70;;;13.82;;
23519;SDS011;11936;50.820;4.336;2023-02-04T11:53:29;22.55;;;15.23;;
23519;SDS011;11936;50.820;4.336;2023-02-04T11:55:55;23.67;;;16.23;;
23519;SDS011;11936;50.820;4.336;2023-02-04T11:58:22;25.27;;;15.48;;
23519;SDS011;11936;50.820;4.336;2023-02-04T12:00:50;25.63;;;14.35;;
23519;SDS011;11936;50.820;4.336;2023-02-04T12:03:23;18.92;;;14.07;;
23519;SDS011;11936;50.820;4.336;2023-02-04T12:05:52;21.60;;;14.50;;
23519;SDS011;11936;50.820;4.336;2023-02-04T12:10:50;19.55;;;12.48;;
23519;SDS011;11936;50.820;4.336;2023-02-04T12:13:28;22.25;;;12.60;;
23519;SDS011;11936;50.820;4.336;2023-02-04T12:15:59;18.52;;;11.57;;
23519;SDS011;11936;50.820;4.336;2023-02-04T12:18:29;23.42;;;12.15;;
23519;SDS011;11936;50.820;4.336;2023-02-04T12:20:56;20.75;;;12.80;;
23519;SDS011;11936;50.820;4.336;2023-02-04T12:23:22;15.27;;;8.77;;
23519;SDS011;11936;50.820;4.336;2023-02-04T12:25:49;14.90;;;9.07;;
23519;SDS011;11936;50.820;4.336;2023-02-04T12:28:15;14.75;;;8.75;;
23519;SDS011;11936;50.820;4.336;2023-02-04T12:30:41;15.85;;;7.88;;
23519;SDS011;11936;50.820;4.336;2023-02-04T12:33:06;15.98;;;9.02;;
23519;SDS011;11936;50.820;4.336;2023-02-04T12:35:33;14.90;;;8.70;;
23519;SDS011;11936;50.820;4.336;2023-02-04T12:37:59;18.58;;;9.55;;
23519;SDS011;11936;50.820;4.336;2023-02-04T12:40:25;16.13;;;8.48;;
23519;SDS011;11936;50.820;4.336;2023-02-04T12:42:51;17.20;;;9.65;;
23519;SDS011;11936;50.820;4.336;2023-02-04T12:45:17;16.42;;;9.82;;
23519;SDS011;11936;50.820;4.336;2023-02-04T12:47:42;14.25;;;9.60;;
23519;SDS011;11936;50.820;4.336;2023-02-04T12:50:08;18.73;;;10.57;;
23519;SDS011;11936;50.820;4.336;2023-02-04T12:52:36;23.40;;;10.15;;
23519;SDS011;11936;50.820;4.336;2023-02-04T12:55:03;23.38;;;12.98;;
23519;SDS011;11936;50.820;4.336;2023-02-04T12:57:31;21.20;;;11.38;;
23519;SDS011;11936;50.820;4.336;2023-02-04T12:59:59;21.60;;;12.45;;
23519;SDS011;11936;50.820;4.336;2023-02-04T13:02:28;18.90;;;12.27;;
23519;SDS011;11936;50.820;4.336;2023-02-04T13:04:54;27.35;;;14.65;;
23519;SDS011;11936;50.820;4.336;2023-02-04T13:07:20;24.75;;;13.82;;
23519;SDS011;11936;50.820;4.336;2023-02-04T13:09:46;24.88;;;14.18;;
23519;SDS011;11936;50.820;4.336;2023-02-04T13:12:12;23.48;;;14.77;;
23519;SDS011;11936;50.820;4.336;2023-02-04T13:14:39;23.08;;;15.25;;
23519;SDS011;11936;50.820;4.336;2023-02-04T13:17:08;29.98;;;16.65;;
23519;SDS011;11936;50.820;4.336;2023-02-04T13:19:34;23.85;;;16.70;;
23519;SDS011;11936;50.820;4.336;2023-02-04T13:21:59;24.70;;;17.08;;
23519;SDS011;11936;50.820;4.336;2023-02-04T13:24:25;24.73;;;17.60;;
23519;SDS011;11936;50.820;4.336;2023-02-04T13:26:51;24.73;;;17.13;;
23519;SDS011;11936;50.820;4.336;2023-02-04T13:29:17;27.23;;;18.45;;
23519;SDS011;11936;50.820;4.336;2023-02-04T13:31:43;27.55;;;17.98;;
23519;SDS011;11936;50.820;4.336;2023-02-04T13:34:09;27.38;;;18.27;;
23519;SDS011;11936;50.820;4.336;2023-02-04T13:36:34;31.73;;;18.55;;
23519;SDS011;11936;50.820;4.336;2023-02-04T13:39:00;30.70;;;18.52;;
23519;SDS011;11936;50.820;4.336;2023-02-04T13:41:26;26.15;;;19.13;;
23519;SDS011;11936;50.820;4.336;2023-02-04T13:43:52;33.85;;;20.30;;
23519;SDS011;11936;50.820;4.336;2023-02-04T13:46:18;28.80;;;20.27;;
23519;SDS011;11936;50.820;4.336;2023-02-04T13:48:44;31.05;;;20.48;;
23519;SDS011;11936;50.820;4.336;2023-02-04T13:51:12;33.27;;;19.30;;
23519;SDS011;11936;50.820;4.336;2023-02-04T13:53:38;30.88;;;19.50;;
23519;SDS011;11936;50.820;4.336;2023-02-04T13:56:04;29.67;;;20.05;;
23519;SDS011;11936;50.820;4.336;2023-02-04T13:58:30;32.83;;;20.13;;
23519;SDS011;11936;50.820;4.336;2023-02-04T14:00:55;28.67;;;19.92;;
23519;SDS011;11936;50.820;4.336;2023-02-04T14:03:25;27.15;;;19.38;;
23519;SDS011;11936;50.820;4.336;2023-02-04T14:05:52;33.55;;;20.70;;
23519;SDS011;11936;50.820;4.336;2023-02-04T14:08:18;30.73;;;21.25;;
23519;SDS011;11936;50.820;4.336;2023-02-04T14:10:44;36.08;;;19.85;;
23519;SDS011;11936;50.820;4.336;2023-02-04T14:13:10;29.20;;;18.85;;
23519;SDS011;11936;50.820;4.336;2023-02-04T14:15:36;32.00;;;19.27;;
23519;SDS011;11936;50.820;4.336;2023-02-04T14:18:03;28.65;;;19.98;;
23519;SDS011;11936;50.820;4.336;2023-02-04T14:20:29;31.02;;;21.10;;
23519;SDS011;11936;50.820;4.336;2023-02-04T14:22:55;29.52;;;20.67;;
23519;SDS011;11936;50.820;4.336;2023-02-04T14:25:21;36.55;;;20.40;;
23519;SDS011;11936;50.820;4.336;2023-02-04T14:27:47;35.28;;;21.25;;
23519;SDS011;11936;50.820;4.336;2023-02-04T14:30:17;33.40;;;22.75;;
23519;SDS011;11936;50.820;4.336;2023-02-04T14:32:47;30.83;;;19.92;;
23519;SDS011;11936;50.820;4.336;2023-02-04T14:35:13;31.20;;;21.85;;
23519;SDS011;11936;50.820;4.336;2023-02-04T14:37:39;34.90;;;21.45;;
23519;SDS011;11936;50.820;4.336;2023-02-04T14:40:05;28.27;;;20.33;;